Time;durP1;ratioP1;P1;durP2;ratioP2;P2;SDS_P1;SDS_P2;PMS_P1;PMS_P2;Temp;Humidity;BMP_temperature;BMP_pressure;BME280_temperature;BME280_humidity;BME280_pressure;Samples;Min_cycle;Max_cycle;Signal;HPM_P1;HPM_P2
2021/12/16 00:01:47;;;;;;;13.80;7.20;;;;;;;8.05;100.00;102961.50;10030942;29;20478;-70
2021/12/16 00:33:17;;;;;;;18.15;7.63;;;;;;;8.11;100.00;102963.25;10024831;29;20095;-71
2021/12/16 00:38:14;;;;;;;14.80;7.45;;;;;;;8.07;100.00;102959.34;10023341;29;20044;-71
2021/12/16 00:43:27;;;;;;;18.08;8.77;;;;;;;8.08;100.00;102958.31;10029304;29;20044;-71
2021/12/16 00:48:47;;;;;;;15.10;7.95;;;;;;;8.10;100.00;102956.16;10026597;29;20098;-71
2021/12/16 00:59:10;;;;;;;25.55;9.15;;;;;;;8.03;100.00;102966.41;10027146;29;20064;-72
2021/12/16 01:04:56;;;;;;;21.88;9.50;;;;;;;8.01;100.00;102973.97;10026684;29;20040;-71
2021/12/16 01:51:33;;;;;;;27.42;12.35;;;;;;;8.11;100.00;103006.84;10026679;29;20052;-72
2021/12/16 01:56:44;;;;;;;30.42;11.63;;;;;;;8.13;100.00;103004.72;10023735;28;20075;-73
2021/12/16 02:01:40;;;;;;;34.00;13.55;;;;;;;8.07;100.00;103011.13;10021474;28;20506;-71
2021/12/16 02:06:48;;;;;;;31.35;12.60;;;;;;;8.09;100.00;103014.44;10032266;28;20123;-71
2021/12/16 02:11:55;;;;;;;31.25;14.05;;;;;;;8.07;100.00;103016.56;10026777;28;20075;-72
2021/12/16 02:32:51;;;;;;;34.83;14.90;;;;;;;8.08;100.00;103034.59;10023770;28;20154;-73
2021/12/16 02:37:49;;;;;;;38.17;18.35;;;;;;;8.11;100.00;103041.47;10030477;29;20066;-71
2021/12/16 02:43:53;;;;;;;35.83;15.48;;;;;;;8.09;100.00;103041.69;10025609;29;20040;-72
2021/12/16 02:53:22;;;;;;;39.90;18.73;;;;;;;8.00;100.00;103038.53;10020253;28;20422;-71
2021/12/16 02:58:19;;;;;;;48.97;19.05;;;;;;;7.96;100.00;103047.41;10032846;28;20051;-72
2021/12/16 03:03:16;;;;;;;42.63;18.80;;;;;;;7.94;100.00;103052.31;10013134;29;20213;-72
2021/12/16 03:08:12;;;;;;;46.60;20.83;;;;;;;7.79;100.00;103053.63;10020699;28;20618;-72
2021/12/16 03:13:21;;;;;;;55.17;22.15;;;;;;;7.94;100.00;103076.84;10035080;28;20139;-72
2021/12/16 03:23:52;;;;;;;40.03;21.17;;;;;;;7.95;100.00;103067.56;10014582;29;20090;-71
2021/12/16 03:39:06;;;;;;;49.83;23.17;;;;;;;7.90;100.00;103075.66;10014304;28;20056;-71
2021/12/16 03:44:10;;;;;;;45.47;21.27;;;;;;;7.78;100.00;103073.78;10015675;29;20063;-71
2021/12/16 03:49:14;;;;;;;51.28;24.27;;;;;;;7.86;100.00;103078.03;10013615;29;20147;-71
2021/12/16 03:54:16;;;;;;;52.17;23.15;;;;;;;7.78;100.00;103062.91;10024298;29;20466;-72
2021/12/16 03:59:17;;;;;;;56.90;27.25;;;;;;;7.87;100.00;103073.44;10023577;28;20079;-72
2021/12/16 04:04:14;;;;;;;52.45;25.27;;;;;;;7.90;100.00;103078.38;10004155;29;20048;-72
2021/12/16 04:09:13;;;;;;;55.55;25.52;;;;;;;7.91;100.00;103088.19;10012350;29;20541;-72
2021/12/16 04:14:13;;;;;;;55.30;24.77;;;;;;;7.95;100.00;103100.25;10011070;29;20130;-73
2021/12/16 04:19:12;;;;;;;52.33;24.88;;;;;;;7.88;100.00;103094.13;10012550;29;20426;-73
2021/12/16 04:24:10;;;;;;;58.78;26.42;;;;;;;7.90;100.00;103103.72;10016240;29;20458;-72
2021/12/16 04:29:07;;;;;;;71.78;28.30;;;;;;;7.91;100.00;103105.34;10025794;29;20048;-71
2021/12/16 04:34:06;;;;;;;66.13;29.50;;;;;;;7.88;100.00;103094.13;10019543;29;20048;-70
2021/12/16 04:39:10;;;;;;;67.22;28.30;;;;;;;7.85;100.00;103100.06;10021173;29;20454;-70
2021/12/16 04:44:15;;;;;;;65.65;31.00;;;;;;;7.92;100.00;103098.03;10020826;29;20079;-70
2021/12/16 04:49:14;;;;;;;64.75;28.95;;;;;;;7.90;100.00;103109.16;10019895;29;20067;-69
2021/12/16 04:54:12;;;;;;;76.95;30.55;;;;;;;7.91;100.00;103115.44;10026292;28;20126;-72
2021/12/16 04:59:12;;;;;;;71.00;30.77;;;;;;;7.88;100.00;103133.09;10023329;29;20126;-72
2021/12/16 05:04:08;;;;;;;72.95;30.90;;;;;;;8.00;100.00;103133.06;10021072;29;20090;-72
2021/12/16 05:09:08;;;;;;;78.18;31.25;;;;;;;8.00;100.00;103143.94;10030301;29;20048;-72
2021/12/16 05:14:11;;;;;;;74.47;30.52;;;;;;;7.94;100.00;103164.81;10027540;29;20052;-73
2021/12/16 05:19:24;;;;;;;70.70;30.42;;;;;;;7.93;100.00;103167.78;9998653;28;20055;-73
2021/12/16 05:25:15;;;;;;;78.13;34.08;;;;;;;7.93;100.00;103178.69;10035037;29;20082;-73
2021/12/16 05:30:32;;;;;;;89.68;33.80;;;;;;;7.93;100.00;103184.13;10016860;29;20112;-70
2021/12/16 05:35:30;;;;;;;77.50;32.38;;;;;;;7.90;100.00;103174.53;10037610;29;20095;-71
2021/12/16 05:40:28;;;;;;;84.95;33.42;;;;;;;7.86;100.00;103197.03;10049161;28;20051;-70
2021/12/16 05:45:26;;;;;;;74.35;28.42;;;;;;;7.77;100.00;103181.09;10025301;29;20060;-70
2021/12/16 05:50:28;;;;;;;83.20;32.63;;;;;;;7.85;100.00;103184.50;10019942;29;20044;-69
2021/12/16 05:55:25;;;;;;;84.18;33.00;;;;;;;7.84;100.00;103196.44;10014721;28;20131;-69
2021/12/16 06:00:29;;;;;;;69.70;29.48;;;;;;;7.90;100.00;103200.97;10013718;29;20143;-69
2021/12/16 06:05:26;;;;;;;62.05;29.63;;;;;;;7.95;100.00;103209.22;10014003;29;20063;-71
2021/12/16 06:11:07;;;;;;;64.93;30.42;;;;;;;7.97;100.00;103209.81;10036307;28;20051;-70
2021/12/16 06:22:20;;;;;;;62.78;28.52;;;;;;;7.90;100.00;103206.41;10021565;28;20067;-71
2021/12/16 06:26:38;;;;;;;58.25;25.45;;;;;;;7.98;100.00;103241.44;10008172;29;20425;-70
2021/12/16 06:31:34;;;;;;;54.63;25.30;;;;;;;8.04;100.00;103240.50;10019762;29;20067;-68
2021/12/16 06:36:31;;;;;;;56.22;26.38;;;;;;;8.06;100.00;103248.44;10014807;28;20051;-71
2021/12/16 06:41:34;;;;;;;53.83;24.35;;;;;;;8.05;100.00;103258.50;10007167;29;20056;-70
2021/12/16 06:46:34;;;;;;;47.35;22.38;;;;;;;8.10;100.00;103274.97;10013756;29;20482;-70
2021/12/16 06:51:45;;;;;;;44.92;20.15;;;;;;;8.05;100.00;103272.09;10020435;28;20051;-70
2021/12/16 06:56:53;;;;;;;47.72;21.25;;;;;;;8.06;100.00;103268.34;10016714;28;20118;-71
2021/12/16 07:06:58;;;;;;;41.63;19.10;;;;;;;8.12;100.00;103281.03;10015750;29;20533;-69
2021/12/16 07:11:58;;;;;;;42.90;18.00;;;;;;;8.14;100.00;103300.66;10020988;28;20138;-71
2021/12/16 07:16:57;;;;;;;35.65;17.13;;;;;;;8.17;100.00;103305.66;10010724;28;20084;-72
2021/12/16 07:21:53;;;;;;;38.45;16.27;;;;;;;8.23;100.00;103323.75;10011013;29;20767;-71
2021/12/16 07:26:49;;;;;;;44.20;18.52;;;;;;;8.30;100.00;103336.44;10026846;29;20135;-71
2021/12/16 07:31:46;;;;;;;35.63;15.27;;;;;;;8.34;100.00;103343.09;10011163;29;20048;-71
2021/12/16 07:36:45;;;;;;;34.90;16.15;;;;;;;8.40;100.00;103347.59;10008336;28;20127;-71
2021/12/16 07:41:46;;;;;;;35.03;16.05;;;;;;;8.39;100.00;103356.81;9999865;29;20048;-70
2021/12/16 07:46:46;;;;;;;33.58;14.18;;;;;;;8.39;100.00;103359.56;10010479;28;20671;-70
2021/12/16 07:51:46;;;;;;;33.25;17.27;;;;;;;8.43;100.00;103369.78;10020841;28;20105;-72
2021/12/16 07:56:45;;;;;;;41.85;16.40;;;;;;;8.43;100.00;103377.94;10022889;29;20073;-70
2021/12/16 08:01:45;;;;;;;44.83;17.05;;;;;;;8.45;100.00;103372.28;10023080;29;20107;-70
2021/12/16 08:06:43;;;;;;;45.10;18.20;;;;;;;8.47;100.00;103386.50;10015552;29;20094;-70
2021/12/16 08:11:41;;;;;;;35.60;17.08;;;;;;;8.46;100.00;103376.66;10016637;29;21446;-71
2021/12/16 08:16:38;;;;;;;36.90;17.05;;;;;;;8.42;100.00;103387.22;10015230;29;20059;-68
2021/12/16 08:21:38;;;;;;;36.33;16.20;;;;;;;8.45;100.00;103385.91;10013412;29;20043;-71
2021/12/16 08:26:38;;;;;;;33.92;14.05;;;;;;;8.48;100.00;103384.59;10015821;29;20055;-68
2021/12/16 08:31:37;;;;;;;24.27;11.02;;;;;;;8.52;100.00;103389.34;10018248;29;20063;-70
2021/12/16 08:36:40;;;;;;;25.67;12.85;;;;;;;8.60;100.00;103394.41;10014774;28;20097;-69
2021/12/16 08:41:49;;;;;;;23.77;12.40;;;;;;;8.55;100.00;103405.22;10014042;29;20201;-69
2021/12/16 08:46:50;;;;;;;27.77;11.45;;;;;;;8.55;100.00;103405.22;10018899;29;20264;-70
2021/12/16 08:51:50;;;;;;;23.55;10.93;;;;;;;8.67;100.00;103412.56;10012558;29;20060;-70
2021/12/16 08:56:47;;;;;;;15.00;7.55;;;;;;;8.61;100.00;103409.72;10039087;28;20557;-69
2021/12/16 09:01:47;;;;;;;18.30;8.13;;;;;;;8.66;100.00;103432.69;10012628;28;20490;-70
2021/12/16 09:06:43;;;;;;;16.45;6.45;;;;;;;8.59;100.00;103436.41;10013868;29;20055;-70
2021/12/16 09:11:55;;;;;;;19.23;6.25;;;;;;;8.69;100.00;103437.69;10016099;29;20075;-71
2021/12/16 09:16:52;;;;;;;14.27;5.90;;;;;;;8.70;100.00;103428.44;10016165;29;20506;-70
2021/12/16 09:21:49;;;;;;;12.88;5.32;;;;;;;8.68;100.00;103422.38;10022438;29;20111;-70
2021/12/16 09:26:46;;;;;;;11.65;4.72;;;;;;;8.61;100.00;103407.00;10008014;29;20096;-71
2021/12/16 09:31:48;;;;;;;13.80;4.95;;;;;;;8.70;100.00;103422.97;10008639;28;20764;-70
2021/12/16 09:36:45;;;;;;;7.72;3.88;;;;;;;8.76;100.00;103432.94;10026343;28;20138;-69
2021/12/16 09:41:46;;;;;;;10.95;3.35;;;;;;;8.64;100.00;103431.06;10010979;29;20039;-70
2021/12/16 09:46:44;;;;;;;15.52;4.82;;;;;;;8.64;100.00;103441.97;10023155;29;20072;-70
2021/12/16 09:51:43;;;;;;;14.32;4.68;;;;;;;8.71;100.00;103463.66;10002851;29;20056;-70
2021/12/16 09:56:43;;;;;;;17.50;3.75;;;;;;;8.76;100.00;103461.03;10017508;28;20071;-70
2021/12/16 10:01:43;;;;;;;14.35;3.65;;;;;;;8.71;100.00;103468.28;10026439;28;20079;-71
2021/12/16 10:06:41;;;;;;;13.38;4.50;;;;;;;8.77;100.00;103456.41;10013061;29;20492;-71
2021/12/16 10:11:41;;;;;;;14.68;4.78;;;;;;;8.85;100.00;103453.34;10014859;29;20051;-70
2021/12/16 10:22:16;;;;;;;10.82;4.22;;;;;;;8.91;100.00;103471.50;10017887;29;20147;-72
2021/12/16 10:27:19;;;;;;;11.23;4.82;;;;;;;9.03;100.00;103475.03;10009389;29;20139;-71
2021/12/16 10:32:35;;;;;;;19.83;5.50;;;;;;;8.99;100.00;103471.09;10018124;29;20466;-71
2021/12/16 10:37:36;;;;;;;10.57;3.72;;;;;;;9.05;100.00;103459.25;10008843;29;20506;-70
2021/12/16 10:42:48;;;;;;;15.38;3.58;;;;;;;8.86;100.00;103468.63;10025212;29;20094;-70
2021/12/16 10:48:16;;;;;;;13.52;3.63;;;;;;;8.94;100.00;103481.09;10013928;28;20569;-71
2021/12/16 10:53:12;;;;;;;19.88;4.78;;;;;;;9.03;100.00;103466.84;10023025;29;20107;-72
2021/12/16 10:58:09;;;;;;;18.10;3.72;;;;;;;9.14;100.00;103472.50;10021995;29;20168;-71
2021/12/16 11:03:05;;;;;;;15.07;3.85;;;;;;;9.21;100.00;103481.38;10021332;29;20577;-71
2021/12/16 11:08:04;;;;;;;16.38;5.00;;;;;;;9.22;100.00;103481.16;10034378;28;20083;-70
2021/12/16 11:13:08;;;;;;;16.25;6.00;;;;;;;9.15;100.00;103485.09;10026914;29;20130;-71
2021/12/16 11:18:14;;;;;;;19.33;6.53;;;;;;;9.23;100.00;103498.34;10016291;29;20566;-72
2021/12/16 11:23:26;;;;;;;18.38;7.03;;;;;;;9.22;100.00;103507.63;10023229;29;20044;-72
2021/12/16 11:28:55;;;;;;;15.43;7.60;;;;;;;9.18;100.00;103490.06;10035575;28;20114;-72
2021/12/16 11:34:04;;;;;;;14.32;6.10;;;;;;;9.15;100.00;103506.94;10024531;28;20067;-72
2021/12/16 11:39:04;;;;;;;17.13;4.78;;;;;;;9.03;100.00;103501.50;10033137;28;20118;-71
2021/12/16 11:44:37;;;;;;;24.13;5.65;;;;;;;9.33;100.00;103504.03;10027244;29;20090;-70
2021/12/16 11:49:40;;;;;;;15.82;3.83;;;;;;;9.38;100.00;103506.88;10025028;28;20130;-71
2021/12/16 11:54:42;;;;;;;18.88;4.90;;;;;;;9.29;100.00;103508.31;10013813;29;20071;-71
2021/12/16 11:59:43;;;;;;;15.32;4.40;;;;;;;9.33;100.00;103514.97;10029457;29;20134;-70
2021/12/16 12:04:40;;;;;;;15.75;4.78;;;;;;;9.22;100.00;103515.81;10026823;29;20044;-71
2021/12/16 12:09:41;;;;;;;18.27;4.85;;;;;;;9.37;100.00;103520.75;10028034;29;20086;-70
2021/12/16 12:14:39;;;;;;;24.25;5.22;;;;;;;9.34;100.00;103522.06;10031209;29;20050;-71
2021/12/16 12:19:42;;;;;;;25.92;4.78;;;;;;;9.51;100.00;103515.84;10034058;29;20051;-69
2021/12/16 12:24:46;;;;;;;21.27;5.50;;;;;;;9.72;100.00;103523.38;10028753;28;20048;-71
2021/12/16 12:29:50;;;;;;;17.77;4.35;;;;;;;9.36;100.00;103522.66;10019401;29;20048;-72
2021/12/16 12:34:53;;;;;;;16.42;4.43;;;;;;;9.25;100.00;103528.97;10025293;29;20102;-69
2021/12/16 12:39:58;;;;;;;14.52;3.53;;;;;;;9.33;100.00;103542.28;10026333;28;20115;-70
2021/12/16 12:44:55;;;;;;;16.83;3.22;;;;;;;9.32;100.00;103535.13;10025091;29;20159;-70
2021/12/16 12:49:52;;;;;;;17.00;2.92;;;;;;;9.41;100.00;103532.88;10016897;29;20058;-69
2021/12/16 12:55:09;;;;;;;14.00;2.88;;;;;;;9.27;100.00;103537.75;10027119;29;20566;-70
2021/12/16 13:00:35;;;;;;;25.27;4.25;;;;;;;9.17;100.00;103532.91;10027117;29;21547;-70
2021/12/16 13:05:31;;;;;;;15.02;2.65;;;;;;;9.20;100.00;103526.97;10015504;28;20558;-70
2021/12/16 13:10:47;;;;;;;19.10;3.42;;;;;;;9.24;100.00;103527.31;10028382;29;20546;-69
2021/12/16 13:15:51;;;;;;;20.88;3.53;;;;;;;9.54;100.00;103535.34;10027650;29;20479;-69
2021/12/16 13:26:33;;;;;;;18.02;2.78;;;;;;;9.44;100.00;103560.50;10023673;29;20119;-69
2021/12/16 13:37:25;;;;;;;18.65;3.33;;;;;;;9.23;100.00;103561.16;10019578;28;20102;-71
2021/12/16 13:42:22;;;;;;;15.77;2.67;;;;;;;9.26;100.00;103557.97;9996408;28;63275;-72
2021/12/16 14:03:25;;;;;;;17.58;2.70;;;;;;;9.02;100.00;103557.94;9985644;28;20410;-71
2021/12/16 14:08:45;;;;;;;15.52;2.65;;;;;;;8.93;100.00;103555.81;9982839;28;20055;-71
2021/12/16 14:24:24;;;;;;;18.48;2.95;;;;;;;8.69;100.00;103549.53;9983090;28;20553;-70
2021/12/16 14:35:01;;;;;;;13.18;2.92;;;;;;;8.44;100.00;103566.91;9983102;28;20064;-71
2021/12/16 14:40:36;;;;;;;14.82;3.42;;;;;;;8.31;100.00;103567.06;9969914;28;20162;-71
2021/12/16 14:45:39;;;;;;;21.08;3.90;;;;;;;8.22;100.00;103591.94;9986639;29;20099;-70
2021/12/16 14:50:38;;;;;;;18.27;3.30;;;;;;;8.14;100.00;103595.00;9982868;28;20514;-71
2021/12/16 14:55:37;;;;;;;18.48;4.00;;;;;;;8.19;100.00;103600.59;9984062;28;20534;-70
2021/12/16 15:00:42;;;;;;;19.73;3.92;;;;;;;8.23;100.00;103603.69;9971856;28;20068;-71
2021/12/16 15:05:47;;;;;;;14.88;3.15;;;;;;;8.18;100.00;103609.81;9977684;28;20060;-68
2021/12/16 15:10:46;;;;;;;17.10;3.88;;;;;;;8.07;100.00;103616.06;9978643;28;20108;-69
2021/12/16 15:33:51;;;;;;;15.02;3.72;;;;;;;7.79;100.00;103601.09;9987650;28;20103;-71
2021/12/16 15:47:41;;;;;;;12.60;2.95;;;;;;;7.67;100.00;103627.44;9978658;29;20048;-70
2021/12/16 15:52:40;;;;;;;21.67;3.63;;;;;;;7.65;100.00;103624.13;9972998;29;20052;-70
2021/12/16 15:57:38;;;;;;;14.77;3.55;;;;;;;7.72;100.00;103633.03;9973846;28;20143;-68
2021/12/16 16:02:35;;;;;;;15.73;3.25;;;;;;;7.66;100.00;103644.84;9988630;28;20142;-69
2021/12/16 16:07:33;;;;;;;16.55;4.63;;;;;;;7.74;100.00;103658.16;9987532;28;20080;-70
2021/12/16 16:12:31;;;;;;;24.58;4.30;;;;;;;7.74;100.00;103666.31;10004200;29;20590;-70
2021/12/16 16:17:30;;;;;;;15.82;4.22;;;;;;;7.64;100.00;103657.03;9987886;28;20439;-70
2021/12/16 16:22:27;;;;;;;16.95;5.15;;;;;;;7.65;100.00;103656.78;9975321;29;20066;-71
2021/12/16 16:27:28;;;;;;;18.67;5.65;;;;;;;7.50;100.00;103659.06;9986901;29;20048;-70
2021/12/16 16:32:48;;;;;;;12.52;3.65;;;;;;;7.44;100.00;103665.41;9983164;29;20696;-71
2021/12/16 16:37:45;;;;;;;19.13;4.05;;;;;;;7.46;100.00;103679.63;9989775;28;20146;-70
2021/12/16 16:42:43;;;;;;;23.02;6.13;;;;;;;7.50;100.00;103678.13;9984113;29;20099;-71
2021/12/16 16:47:51;;;;;;;21.02;5.32;;;;;;;7.43;100.00;103680.09;9987338;28;20116;-70
2021/12/16 16:52:57;;;;;;;15.50;5.25;;;;;;;7.48;100.00;103685.69;10001229;28;20044;-70
2021/12/16 16:57:57;;;;;;;15.52;5.25;;;;;;;7.49;100.00;103695.50;9976624;28;20094;-70
2021/12/16 17:02:59;;;;;;;16.35;5.25;;;;;;;7.46;100.00;103695.97;9983053;28;20151;-71
2021/12/16 17:08:03;;;;;;;18.27;5.55;;;;;;;7.47;100.00;103708.50;9990658;28;20176;-70
2021/12/16 17:13:04;;;;;;;18.75;4.65;;;;;;;7.36;100.00;103712.81;9989292;28;20531;-69
2021/12/16 17:18:00;;;;;;;16.88;4.88;;;;;;;7.40;100.00;103714.00;9984216;28;20052;-70
2021/12/16 17:23:00;;;;;;;17.75;5.00;;;;;;;7.41;100.00;103720.31;9983852;28;20055;-70
2021/12/16 17:28:03;;;;;;;15.52;4.78;;;;;;;7.38;100.00;103725.13;9989273;28;20075;-70
2021/12/16 17:33:00;;;;;;;19.58;5.18;;;;;;;7.47;100.00;103713.94;9986205;29;20148;-70
2021/12/16 17:38:01;;;;;;;17.30;5.47;;;;;;;7.45;100.00;103729.66;9987471;29;20048;-71
2021/12/16 17:43:02;;;;;;;15.45;6.43;;;;;;;7.45;100.00;103726.94;9982630;28;20491;-70
2021/12/16 17:48:01;;;;;;;16.42;5.72;;;;;;;7.58;100.00;103737.72;9987690;29;20131;-70
2021/12/16 17:52:58;;;;;;;20.80;6.93;;;;;;;7.50;100.00;103740.75;9983676;29;20054;-71
2021/12/16 17:57:58;;;;;;;20.38;6.47;;;;;;;7.29;100.00;103745.53;10003811;28;20056;-70
2021/12/16 18:02:56;;;;;;;16.52;6.70;;;;;;;7.40;100.00;103762.19;9986396;28;20128;-70
2021/12/16 18:07:53;;;;;;;17.52;6.65;;;;;;;7.25;100.00;103752.44;9986373;28;20063;-69
2021/12/16 18:12:51;;;;;;;19.67;6.22;;;;;;;7.08;100.00;103743.19;9989203;28;20549;-69
2021/12/16 18:18:22;;;;;;;15.55;5.50;;;;;;;7.05;100.00;103732.72;9989053;28;20078;-70
2021/12/16 18:23:27;;;;;;;20.05;5.53;;;;;;;6.92;100.00;103734.47;9975572;29;20518;-72
2021/12/16 18:28:37;;;;;;;19.63;6.15;;;;;;;6.82;100.00;103755.88;9985255;29;20135;-72
2021/12/16 18:33:51;;;;;;;17.70;5.90;;;;;;;6.79;100.00;103750.88;9981507;28;20040;-71
2021/12/16 18:39:11;;;;;;;16.02;5.70;;;;;;;6.89;100.00;103756.69;9974264;29;20127;-72
2021/12/16 18:44:09;;;;;;;16.30;5.68;;;;;;;6.78;100.00;103760.09;9977478;28;20052;-72
2021/12/16 18:49:16;;;;;;;24.67;6.05;;;;;;;6.80;100.00;103768.88;9978345;29;20044;-71
2021/12/16 18:54:29;;;;;;;26.55;7.72;;;;;;;6.95;100.00;103766.66;9980724;28;20160;-72
2021/12/16 18:59:32;;;;;;;26.02;6.68;;;;;;;6.99;100.00;103756.19;9984117;29;20491;-71
2021/12/16 19:04:37;;;;;;;21.83;6.25;;;;;;;6.98;100.00;103775.44;9981695;29;20094;-71
2021/12/16 19:09:34;;;;;;;17.00;6.40;;;;;;;7.14;100.00;103777.66;9989433;28;20503;-71
2021/12/16 19:14:35;;;;;;;16.98;6.63;;;;;;;7.19;100.00;103785.97;9986749;28;20106;-72
2021/12/16 19:19:47;;;;;;;19.65;5.82;;;;;;;7.00;100.00;103778.78;10251061;28;20657;-69
2021/12/16 19:24:45;;;;;;;18.17;6.15;;;;;;;6.93;100.00;103784.28;10246053;28;20565;-69
2021/12/16 19:29:44;;;;;;;21.63;7.70;;;;;;;6.82;100.00;103780.34;10250966;28;20466;-69
2021/12/16 19:34:41;;;;;;;22.48;7.35;;;;;;;6.90;100.00;103790.16;10248150;28;20510;-68
2021/12/16 19:39:38;;;;;;;22.83;6.85;;;;;;;6.98;100.00;103778.16;10238642;28;20050;-69
2021/12/16 19:44:35;;;;;;;20.20;7.43;;;;;;;7.08;100.00;103770.38;10243168;28;20080;-68
2021/12/16 19:49:32;;;;;;;20.80;7.68;;;;;;;7.04;100.00;103785.47;10244054;28;20515;-69
2021/12/16 19:54:28;;;;;;;24.50;7.15;;;;;;;6.86;100.00;103783.47;10241626;28;20661;-69
2021/12/16 19:59:26;;;;;;;13.80;6.10;;;;;;;6.95;100.00;103802.03;10234218;28;20045;-70
2021/12/16 20:04:38;;;;;;;20.15;7.35;;;;;;;6.86;100.00;103794.34;10238528;28;20550;-68
2021/12/16 20:09:37;;;;;;;25.90;8.77;;;;;;;6.78;100.00;103776.41;10236710;28;20050;-69
2021/12/16 20:14:34;;;;;;;17.30;6.63;;;;;;;6.68;100.00;103778.75;10248754;28;20053;-70
2021/12/16 20:19:34;;;;;;;19.85;7.28;;;;;;;6.68;100.00;103787.75;10246717;28;20076;-69
2021/12/16 20:24:41;;;;;;;21.48;7.53;;;;;;;6.68;100.00;103789.63;10241499;28;20663;-70
2021/12/16 20:29:49;;;;;;;18.17;6.78;;;;;;;6.66;100.00;103778.97;10230975;28;20080;-69
2021/12/16 20:34:52;;;;;;;20.85;7.30;;;;;;;6.76;100.00;103778.50;10212981;28;20579;-69
2021/12/16 20:39:58;;;;;;;15.95;8.10;;;;;;;6.66;100.00;103772.69;10219299;28;20046;-70
2021/12/16 20:45:04;;;;;;;26.92;9.07;;;;;;;6.53;100.00;103762.72;10218042;28;20578;-70
2021/12/16 20:50:02;;;;;;;18.92;8.25;;;;;;;6.57;100.00;103752.22;10259456;28;20072;-69
2021/12/16 20:55:08;;;;;;;20.55;9.60;;;;;;;6.58;100.00;103743.88;10261357;28;20048;-69
2021/12/16 21:00:19;;;;;;;23.27;11.43;;;;;;;6.55;100.00;103746.22;10255074;28;20132;-69
2021/12/16 21:05:19;;;;;;;21.77;10.60;;;;;;;6.47;100.00;103747.25;10261034;28;20187;-69
2021/12/16 21:10:16;;;;;;;27.48;13.07;;;;;;;6.49;100.00;103756.88;10260279;28;20087;-69
2021/12/16 21:15:15;;;;;;;24.00;14.20;;;;;;;6.57;100.00;103769.41;10258722;28;20478;-70
2021/12/16 21:20:13;;;;;;;25.70;13.65;;;;;;;6.48;100.00;103771.53;10255046;28;20128;-70
2021/12/16 21:25:12;;;;;;;21.63;14.52;;;;;;;6.43;100.00;103774.06;10262157;28;20076;-69
2021/12/16 21:30:13;;;;;;;22.58;14.02;;;;;;;6.47;100.00;103758.13;10265492;28;20083;-69
2021/12/16 21:35:17;;;;;;;26.92;14.60;;;;;;;6.45;100.00;103771.97;10247845;28;20651;-70
2021/12/16 21:40:14;;;;;;;25.92;13.77;;;;;;;6.50;100.00;103785.75;10249208;28;20088;-70
2021/12/16 21:45:14;;;;;;;31.98;17.02;;;;;;;6.44;100.00;103792.03;10251547;28;20081;-69
2021/12/16 21:50:16;;;;;;;28.40;13.18;;;;;;;6.57;100.00;103790.28;10250780;28;20052;-69
2021/12/16 21:55:14;;;;;;;32.97;15.53;;;;;;;6.47;100.00;103791.59;10257347;28;20641;-70
2021/12/16 22:00:20;;;;;;;17.02;9.60;;;;;;;6.59;100.00;103799.06;10263670;28;20048;-69
2021/12/16 22:05:17;;;;;;;22.98;11.18;;;;;;;6.62;100.00;103793.22;10267299;28;20041;-70
2021/12/16 22:10:17;;;;;;;23.55;12.73;;;;;;;6.66;100.00;103789.00;10269096;28;20045;-69
2021/12/16 22:15:18;;;;;;;20.95;11.35;;;;;;;6.67;100.00;103794.22;10265454;28;20458;-69
2021/12/16 22:20:19;;;;;;;20.50;10.43;;;;;;;6.66;100.00;103789.84;10263287;28;20079;-69
2021/12/16 22:25:16;;;;;;;20.23;10.13;;;;;;;6.72;100.00;103783.53;10265987;28;20111;-69
2021/12/16 22:30:15;;;;;;;18.40;8.95;;;;;;;6.78;100.00;103781.84;10267234;28;20084;-69
2021/12/16 22:35:18;;;;;;;16.10;8.65;;;;;;;6.80;100.00;103793.34;10265324;28;20079;-69
2021/12/16 22:40:19;;;;;;;22.55;10.15;;;;;;;6.84;100.00;103797.28;10268239;28;20088;-69
2021/12/16 22:45:16;;;;;;;16.13;9.00;;;;;;;6.70;100.00;103795.69;10263160;28;20099;-70
2021/12/16 22:50:16;;;;;;;23.70;9.98;;;;;;;6.76;100.00;103794.00;10264233;28;20527;-69
2021/12/16 22:55:13;;;;;;;14.25;8.30;;;;;;;6.80;100.00;103790.63;10260709;28;20394;-68
2021/12/16 23:00:17;;;;;;;15.32;7.90;;;;;;;6.83;100.00;103795.63;10263600;28;20076;-67
2021/12/16 23:05:14;;;;;;;14.90;7.55;;;;;;;6.77;100.00;103812.81;10266665;28;20044;-69
2021/12/16 23:10:15;;;;;;;13.38;7.28;;;;;;;6.81;100.00;103814.03;10268383;28;20041;-68
2021/12/16 23:16:16;;;;;;;16.27;6.47;;;;;;;6.93;100.00;103812.31;10260952;28;20469;-68
2021/12/16 23:25:49;;;;;;;17.35;7.50;;;;;;;6.91;100.00;103811.69;10264571;28;20069;-69
2021/12/16 23:30:46;;;;;;;10.93;6.53;;;;;;;6.89;100.00;103821.09;10264486;28;20049;-68
2021/12/16 23:35:44;;;;;;;15.90;7.28;;;;;;;6.74;100.00;103829.56;10267355;28;20123;-68
2021/12/16 23:40:40;;;;;;;14.05;7.18;;;;;;;6.84;100.00;103835.34;10263589;28;20095;-67
2021/12/16 23:45:58;;;;;;;15.70;7.97;;;;;;;6.83;100.00;103828.25;10262961;28;20045;-69
2021/12/16 23:56:12;;;;;;;15.50;7.53;;;;;;;6.88;100.00;103841.22;10257441;28;20096;-69
